createdAt,value
2023-03-15T00:01:50.648Z,6.70
2023-03-15T00:04:17.708Z,6.70
2023-03-15T00:06:44.603Z,6.70
2023-03-15T00:09:11.427Z,6.70
2023-03-15T00:11:38.503Z,6.80
2023-03-15T00:14:06.084Z,6.70
2023-03-15T00:16:33.113Z,6.90
2023-03-15T00:19:00.780Z,6.80
2023-03-15T00:21:29.913Z,6.90
2023-03-15T00:23:57.071Z,6.90
2023-03-15T00:26:24.064Z,6.90
2023-03-15T00:28:51.130Z,6.90
2023-03-15T00:31:22.014Z,7.00
2023-03-15T00:33:49.625Z,7.00
2023-03-15T00:36:16.856Z,7.00
2023-03-15T00:38:46.550Z,7.10
2023-03-15T00:41:18.488Z,7.10
2023-03-15T00:43:46.096Z,7.10
2023-03-15T00:46:14.221Z,7.10
2023-03-15T00:48:41.277Z,7.00
2023-03-15T00:51:18.943Z,7.00
2023-03-15T00:53:48.112Z,6.90
2023-03-15T00:56:19.564Z,6.80
2023-03-15T00:58:47.000Z,6.70
2023-03-15T01:01:24.192Z,6.60
2023-03-15T01:03:51.242Z,6.50
2023-03-15T01:06:22.870Z,6.50
2023-03-15T01:08:49.988Z,6.50
2023-03-15T01:11:24.201Z,6.40
2023-03-15T01:13:57.897Z,6.30
2023-03-15T01:16:25.283Z,6.20
2023-03-15T01:18:53.152Z,6.10
2023-03-15T01:21:22.588Z,5.80
2023-03-15T01:23:50.501Z,5.60
2023-03-15T01:26:18.153Z,5.50
2023-03-15T01:28:46.819Z,5.30
2023-03-15T01:31:25.692Z,5.20
2023-03-15T01:33:53.665Z,5.10
2023-03-15T01:36:20.825Z,5.00
2023-03-15T01:38:49.581Z,5.00
2023-03-15T01:41:18.616Z,4.90
2023-03-15T01:43:49.185Z,4.90
2023-03-15T01:46:35.685Z,4.80
2023-03-15T01:49:13.436Z,4.80
2023-03-15T01:51:49.078Z,4.80
2023-03-15T01:54:27.127Z,4.80
2023-03-15T01:57:22.945Z,4.80
2023-03-15T02:00:02.279Z,4.80
2023-03-15T02:02:29.715Z,4.80
2023-03-15T02:05:09.979Z,4.80
2023-03-15T02:07:49.741Z,4.80
2023-03-15T02:10:30.743Z,4.80
2023-03-15T02:12:59.519Z,4.80
2023-03-15T02:15:27.127Z,4.80
2023-03-15T02:17:54.001Z,4.80
2023-03-15T02:21:12.991Z,4.80
2023-03-15T02:23:40.630Z,4.90
2023-03-15T02:26:28.082Z,4.90
2023-03-15T02:28:56.038Z,4.90
2023-03-15T02:31:23.048Z,4.90
2023-03-15T02:33:52.792Z,4.90
2023-03-15T02:36:26.625Z,5.00
2023-03-15T02:38:56.331Z,4.90
2023-03-15T02:41:32.433Z,5.00
2023-03-15T02:44:11.486Z,5.00
2023-03-15T02:46:38.495Z,5.00
2023-03-15T02:49:08.531Z,5.00
2023-03-15T02:51:35.453Z,5.00
2023-03-15T02:54:04.187Z,5.00
2023-03-15T02:56:33.536Z,5.00
2023-03-15T02:59:00.821Z,5.00
2023-03-15T03:01:27.671Z,5.00
2023-03-15T03:03:54.519Z,5.00
2023-03-15T03:06:21.437Z,5.00
2023-03-15T03:08:48.500Z,5.00
2023-03-15T03:11:16.356Z,5.00
2023-03-15T03:13:44.019Z,5.00
2023-03-15T03:16:11.435Z,5.00
2023-03-15T03:18:39.337Z,5.00
2023-03-15T03:21:08.086Z,4.90
2023-03-15T03:23:36.927Z,4.80
2023-03-15T03:26:16.696Z,4.80
2023-03-15T03:28:46.789Z,4.80
2023-03-15T03:31:22.383Z,4.80
2023-03-15T03:33:49.448Z,4.80
2023-03-15T03:36:16.450Z,4.70
2023-03-15T03:38:46.171Z,4.60
2023-03-15T03:41:15.364Z,4.70
2023-03-15T03:43:42.750Z,4.60
2023-03-15T03:46:09.823Z,4.50
2023-03-15T03:48:36.731Z,4.50
2023-03-15T03:51:03.876Z,4.50
2023-03-15T03:53:31.049Z,4.50
2023-03-15T03:55:57.885Z,4.40
2023-03-15T03:58:24.775Z,4.50
2023-03-15T04:00:55.625Z,4.40
2023-03-15T04:03:27.866Z,4.50
2023-03-15T04:05:56.542Z,4.50
2023-03-15T04:08:26.173Z,4.50
2023-03-15T04:10:56.472Z,4.50
2023-03-15T04:13:24.963Z,4.50
2023-03-15T04:15:57.532Z,4.50
2023-03-15T04:18:25.165Z,4.50
2023-03-15T04:20:54.850Z,4.50
2023-03-15T04:23:23.821Z,4.40
2023-03-15T04:25:52.421Z,4.40
2023-03-15T04:28:19.977Z,4.40
2023-03-15T04:30:49.696Z,4.30
2023-03-15T04:33:16.871Z,4.30
2023-03-15T04:35:43.867Z,4.30
2023-03-15T04:38:10.899Z,4.30
2023-03-15T04:40:37.800Z,4.20
2023-03-15T04:43:05.927Z,4.20
2023-03-15T04:45:33.362Z,4.30
2023-03-15T04:48:02.448Z,4.10
2023-03-15T04:50:30.833Z,4.10
2023-03-15T04:53:01.594Z,4.10
2023-03-15T04:55:28.866Z,4.20
2023-03-15T04:57:56.735Z,4.20
2023-03-15T05:00:23.693Z,4.20
2023-03-15T05:02:54.956Z,4.20
2023-03-15T05:05:23.895Z,4.20
2023-03-15T05:07:51.250Z,4.20
2023-03-15T05:10:18.625Z,4.20
2023-03-15T05:12:45.448Z,4.20
2023-03-15T05:15:12.521Z,4.20
2023-03-15T05:17:39.380Z,4.20
2023-03-15T05:20:13.175Z,4.20
2023-03-15T05:22:41.024Z,4.20
2023-03-15T05:25:10.382Z,4.20
2023-03-15T05:27:38.304Z,4.10
2023-03-15T05:30:07.415Z,4.10
2023-03-15T05:32:35.241Z,4.10
2023-03-15T05:35:03.041Z,4.00
2023-03-15T05:37:32.812Z,4.00
2023-03-15T05:40:01.431Z,4.00
2023-03-15T05:42:29.301Z,4.00
2023-03-15T05:44:57.344Z,4.00
2023-03-15T05:47:24.858Z,4.00
2023-03-15T05:49:52.521Z,4.00
2023-03-15T05:52:19.458Z,4.00
2023-03-15T05:54:46.380Z,4.00
2023-03-15T05:57:13.204Z,4.00
2023-03-15T05:59:40.038Z,4.10
2023-03-15T06:02:07.381Z,4.00
2023-03-15T06:04:34.532Z,4.00
2023-03-15T06:07:01.656Z,4.10
2023-03-15T06:09:28.567Z,4.10
2023-03-15T06:11:56.042Z,4.20
2023-03-15T06:14:22.904Z,4.20
2023-03-15T06:16:49.868Z,4.20
2023-03-15T06:19:16.709Z,4.20
2023-03-15T06:21:44.043Z,4.20
2023-03-15T06:24:11.262Z,4.20
2023-03-15T06:26:38.634Z,4.20
2023-03-15T06:29:06.373Z,4.20
2023-03-15T06:31:33.262Z,4.10
2023-03-15T06:34:00.123Z,4.10
2023-03-15T06:36:27.261Z,4.10
2023-03-15T06:38:54.540Z,4.00
2023-03-15T06:41:21.512Z,4.10
2023-03-15T06:43:48.395Z,4.10
2023-03-15T06:46:15.862Z,4.10
2023-03-15T06:48:43.035Z,4.10
2023-03-15T06:51:10.111Z,4.10
2023-03-15T06:53:39.956Z,4.20
2023-03-15T06:56:07.249Z,4.20
2023-03-15T06:58:34.129Z,4.20
2023-03-15T07:01:00.962Z,4.20
2023-03-15T07:03:27.805Z,4.30
2023-03-15T07:05:54.761Z,4.40
2023-03-15T07:08:24.928Z,4.50
2023-03-15T07:10:52.534Z,4.50
2023-03-15T07:13:19.732Z,4.60
2023-03-15T07:15:50.914Z,4.60
2023-03-15T07:18:17.765Z,4.60
2023-03-15T07:20:44.812Z,4.70
2023-03-15T07:23:11.614Z,4.70
2023-03-15T07:25:53.882Z,4.70
2023-03-15T07:28:24.222Z,4.80
2023-03-15T07:31:01.776Z,4.80
2023-03-15T07:33:31.936Z,4.80
2023-03-15T07:36:00.050Z,4.90
2023-03-15T07:38:28.923Z,4.90
2023-03-15T07:40:57.025Z,4.90
2023-03-15T07:43:24.534Z,5.00
2023-03-15T07:45:51.413Z,5.20
2023-03-15T07:48:18.744Z,5.40
2023-03-15T07:50:46.101Z,5.70
2023-03-15T07:53:13.098Z,6.10
2023-03-15T07:55:40.141Z,6.60
2023-03-15T07:58:07.170Z,6.80
2023-03-15T08:00:34.020Z,7.10
2023-03-15T08:03:01.103Z,7.40
2023-03-15T08:05:29.223Z,8.00
2023-03-15T08:07:56.640Z,8.70
2023-03-15T08:10:23.861Z,9.20
2023-03-15T08:12:50.823Z,9.70
2023-03-15T08:15:18.775Z,10.00
2023-03-15T08:17:48.778Z,10.40
2023-03-15T08:20:19.683Z,10.80
2023-03-15T08:22:49.551Z,11.20
2023-03-15T08:25:21.452Z,11.60
2023-03-15T08:27:48.667Z,11.90
2023-03-15T08:30:17.228Z,12.10
2023-03-15T08:32:46.877Z,12.50
2023-03-15T08:35:16.486Z,12.70
2023-03-15T08:37:47.922Z,12.90
2023-03-15T08:40:19.253Z,12.80
2023-03-15T08:42:46.597Z,12.70
2023-03-15T08:45:13.520Z,12.60
2023-03-15T08:47:40.345Z,12.50
2023-03-15T08:50:14.456Z,12.30
2023-03-15T08:52:42.278Z,12.40
2023-03-15T08:55:10.723Z,12.60
2023-03-15T08:57:37.616Z,12.90
2023-03-15T09:00:09.444Z,13.10
2023-03-15T09:02:39.096Z,13.20
2023-03-15T09:05:07.236Z,13.20
2023-03-15T09:07:34.557Z,12.90
2023-03-15T09:10:03.515Z,12.80
2023-03-15T09:12:32.186Z,12.80
2023-03-15T09:14:59.028Z,12.80
2023-03-15T09:17:26.029Z,12.90
2023-03-15T09:19:52.902Z,12.70
2023-03-15T09:22:34.760Z,12.40
2023-03-15T09:25:05.645Z,12.00
2023-03-15T09:27:32.628Z,11.80
2023-03-15T09:30:00.107Z,11.90
2023-03-15T09:32:27.372Z,12.20
2023-03-15T09:34:54.468Z,12.70
2023-03-15T09:37:21.948Z,13.00
2023-03-15T09:39:48.913Z,13.40
2023-03-15T09:42:38.958Z,13.80
2023-03-15T09:45:11.327Z,14.50
2023-03-15T09:47:53.182Z,14.90
2023-03-15T09:50:31.510Z,15.30
2023-03-15T09:53:00.043Z,15.70
2023-03-15T09:55:28.726Z,16.10
2023-03-15T09:58:11.314Z,16.40
2023-03-15T10:00:49.871Z,16.50
2023-03-15T10:03:32.414Z,16.70
2023-03-15T10:06:11.619Z,16.80
2023-03-15T10:08:38.695Z,16.70
2023-03-15T10:11:35.297Z,16.50
2023-03-15T10:14:17.824Z,16.20
2023-03-15T10:16:47.921Z,15.70
2023-03-15T10:19:45.876Z,15.10
2023-03-15T10:22:44.172Z,14.40
2023-03-15T10:25:26.067Z,13.50
2023-03-15T10:28:36.213Z,12.90
2023-03-15T10:31:21.624Z,12.30
2023-03-15T10:33:57.202Z,12.00
2023-03-15T10:36:25.816Z,11.60
2023-03-15T10:38:52.817Z,11.50
2023-03-15T10:41:41.790Z,11.80
2023-03-15T10:44:25.161Z,12.40
2023-03-15T10:47:22.003Z,13.10
2023-03-15T10:49:55.504Z,13.80
2023-03-15T10:52:27.616Z,14.10
2023-03-15T10:54:58.785Z,14.30
2023-03-15T10:57:39.172Z,14.20
2023-03-15T11:00:31.239Z,14.00
2023-03-15T11:03:23.445Z,13.70
2023-03-15T11:05:54.072Z,13.40
2023-03-15T11:08:41.800Z,13.20
2023-03-15T11:11:09.954Z,13.00
2023-03-15T11:13:41.935Z,12.60
2023-03-15T11:16:21.944Z,12.30
2023-03-15T11:18:58.822Z,12.00
2023-03-15T11:21:33.570Z,11.70
2023-03-15T11:24:04.370Z,11.50
2023-03-15T11:26:39.246Z,11.30
2023-03-15T11:29:16.238Z,11.20
2023-03-15T11:31:43.430Z,11.00
2023-03-15T11:34:26.817Z,10.80
2023-03-15T11:37:08.394Z,10.60
2023-03-15T11:39:58.831Z,10.50
2023-03-15T11:42:38.909Z,10.40
2023-03-15T11:45:18.641Z,10.30
2023-03-15T11:47:58.252Z,10.20
2023-03-15T11:50:25.186Z,10.10
2023-03-15T11:52:53.497Z,10.10
2023-03-15T11:55:28.276Z,10.00
2023-03-15T11:57:58.446Z,10.00
2023-03-15T12:00:51.432Z,10.00
2023-03-15T12:03:38.749Z,10.00
2023-03-15T12:06:16.437Z,10.00
2023-03-15T12:08:45.951Z,10.00
2023-03-15T12:11:34.598Z,10.00
2023-03-15T12:14:01.632Z,10.00
2023-03-15T12:16:41.899Z,10.00
2023-03-15T12:19:18.505Z,10.00
2023-03-15T12:21:58.622Z,10.00
2023-03-15T12:24:29.039Z,10.00
2023-03-15T12:27:21.316Z,10.00
2023-03-15T12:29:59.708Z,10.10
2023-03-15T12:32:30.291Z,10.10
2023-03-15T12:35:08.850Z,10.20
2023-03-15T12:37:44.939Z,10.30
2023-03-15T12:40:22.275Z,10.50
2023-03-15T12:42:49.151Z,10.50
2023-03-15T12:45:15.950Z,10.60
2023-03-15T12:47:52.234Z,10.60
2023-03-15T12:50:44.060Z,10.70
2023-03-15T12:53:32.042Z,10.60
2023-03-15T12:56:30.343Z,10.70
2023-03-15T12:59:05.633Z,10.70
2023-03-15T13:01:33.597Z,10.80
2023-03-15T13:04:03.514Z,10.80
2023-03-15T13:06:55.778Z,10.80
2023-03-15T13:10:13.033Z,10.80
2023-03-15T13:13:04.012Z,10.80
2023-03-15T13:15:44.461Z,10.90
2023-03-15T13:18:23.403Z,10.90
2023-03-15T13:20:56.148Z,10.90
2023-03-15T13:23:32.155Z,10.90
2023-03-15T13:26:20.304Z,10.90
2023-03-15T13:29:01.242Z,10.90
2023-03-15T13:31:31.470Z,10.80
2023-03-15T13:34:16.707Z,10.80
2023-03-15T13:36:58.794Z,10.70
2023-03-15T13:39:32.912Z,10.70
2023-03-15T13:42:24.158Z,10.60
2023-03-15T13:45:09.190Z,10.60
2023-03-15T13:47:36.006Z,10.60
2023-03-15T13:50:07.805Z,10.50
2023-03-15T13:52:34.877Z,10.60
2023-03-15T13:55:03.128Z,10.60
2023-03-15T13:57:30.356Z,10.70
2023-03-15T14:00:01.885Z,10.70
2023-03-15T14:02:46.832Z,10.70
2023-03-15T14:05:18.994Z,10.70
2023-03-15T14:07:49.592Z,10.60
2023-03-15T14:10:27.672Z,10.60
2023-03-15T14:12:56.174Z,10.60
2023-03-15T14:15:41.744Z,10.50
2023-03-15T14:18:08.513Z,10.50
2023-03-15T14:20:43.343Z,10.40
2023-03-15T14:23:17.784Z,10.40
2023-03-15T14:25:55.874Z,10.40
2023-03-15T14:28:24.770Z,10.40
2023-03-15T14:30:56.159Z,10.40
2023-03-15T14:33:41.705Z,10.50
2023-03-15T14:36:25.577Z,10.50
2023-03-15T14:38:55.023Z,10.50
2023-03-15T14:41:37.090Z,10.50
2023-03-15T14:44:04.004Z,10.40
2023-03-15T14:46:32.096Z,10.30
2023-03-15T14:48:59.049Z,10.30
2023-03-15T14:51:28.930Z,10.20
2023-03-15T14:53:58.731Z,10.10
2023-03-15T14:56:26.081Z,10.10
2023-03-15T14:58:54.217Z,10.00
2023-03-15T15:01:26.359Z,10.00
2023-03-15T15:03:58.813Z,10.00
2023-03-15T15:06:28.066Z,9.90
2023-03-15T15:08:58.946Z,9.90
2023-03-15T15:11:27.396Z,9.90
2023-03-15T15:13:54.902Z,9.90
2023-03-15T15:16:21.866Z,9.90
2023-03-15T15:18:48.755Z,9.80
2023-03-15T15:21:27.420Z,9.80
2023-03-15T15:23:58.919Z,9.90
2023-03-15T15:26:29.957Z,9.80
2023-03-15T15:28:57.859Z,9.80
2023-03-15T15:31:27.901Z,9.90
2023-03-15T15:33:56.716Z,9.80
2023-03-15T15:36:32.754Z,9.80
2023-03-15T15:39:06.368Z,9.80
2023-03-15T15:41:34.150Z,9.70
2023-03-15T15:44:01.747Z,9.80
2023-03-15T15:46:28.922Z,9.80
2023-03-15T15:48:55.791Z,9.70
2023-03-15T15:51:38.582Z,9.80
2023-03-15T15:54:06.136Z,9.80
2023-03-15T15:56:44.288Z,9.80
2023-03-15T15:59:15.041Z,9.70
2023-03-15T16:01:56.554Z,9.70
2023-03-15T16:04:26.268Z,9.80
2023-03-15T16:07:01.730Z,9.70
2023-03-15T16:09:31.570Z,9.80
2023-03-15T16:11:58.682Z,9.70
2023-03-15T16:14:25.633Z,9.70
2023-03-15T16:16:52.479Z,9.80
2023-03-15T16:19:19.305Z,9.70
2023-03-15T16:21:51.543Z,9.70
2023-03-15T16:24:26.555Z,9.70
2023-03-15T16:27:02.085Z,9.70
2023-03-15T16:29:58.890Z,9.60
2023-03-15T16:32:42.856Z,9.60
2023-03-15T16:35:16.247Z,9.50
2023-03-15T16:37:43.909Z,9.50
2023-03-15T16:40:21.424Z,9.40
2023-03-15T16:42:49.797Z,9.40
2023-03-15T16:45:16.850Z,9.30
2023-03-15T16:47:44.157Z,9.30
2023-03-15T16:50:12.287Z,9.30
2023-03-15T16:52:42.121Z,9.20
2023-03-15T16:55:17.289Z,9.20
2023-03-15T16:57:44.351Z,9.20
2023-03-15T17:00:18.385Z,9.10
2023-03-15T17:02:48.257Z,9.10
2023-03-15T17:05:18.985Z,9.00
2023-03-15T17:07:47.654Z,9.00
2023-03-15T17:10:27.929Z,9.10
2023-03-15T17:12:57.090Z,8.90
2023-03-15T17:15:26.635Z,8.90
2023-03-15T17:17:57.539Z,8.90
2023-03-15T17:20:29.234Z,8.90
2023-03-15T17:23:03.901Z,8.80
2023-03-15T17:25:32.960Z,8.80
2023-03-15T17:28:00.441Z,8.80
2023-03-15T17:30:36.922Z,8.70
2023-03-15T17:33:04.925Z,8.70
2023-03-15T17:35:37.289Z,8.70
2023-03-15T17:38:07.335Z,8.70
2023-03-15T17:40:36.242Z,8.70
2023-03-15T17:43:05.061Z,8.60
2023-03-15T17:45:34.785Z,8.60
2023-03-15T17:48:02.469Z,8.60
2023-03-15T17:50:33.190Z,8.60
2023-03-15T17:53:05.246Z,8.60
2023-03-15T17:55:34.857Z,8.60
2023-03-15T17:58:09.166Z,8.60
2023-03-15T18:00:36.271Z,8.60
2023-03-15T18:03:04.518Z,8.60
2023-03-15T18:05:31.353Z,8.60
2023-03-15T18:07:59.569Z,8.60
2023-03-15T18:10:35.447Z,8.50
2023-03-15T18:13:03.859Z,8.50
2023-03-15T18:15:31.076Z,8.50
2023-03-15T18:17:57.958Z,8.50
2023-03-15T18:20:26.045Z,8.50
2023-03-15T18:22:52.950Z,8.50
2023-03-15T18:25:27.741Z,8.40
2023-03-15T18:27:55.100Z,8.50
2023-03-15T18:30:24.231Z,8.50
2023-03-15T18:32:53.451Z,8.40
2023-03-15T18:35:33.872Z,8.50
2023-03-15T18:38:01.634Z,8.50
2023-03-15T18:40:31.785Z,8.50
2023-03-15T18:43:00.289Z,8.50
2023-03-15T18:45:31.402Z,8.50
2023-03-15T18:48:01.411Z,8.50
2023-03-15T18:50:29.838Z,8.50
2023-03-15T18:52:57.509Z,8.50
2023-03-15T18:55:25.318Z,8.50
2023-03-15T18:57:54.965Z,8.40
2023-03-15T19:00:29.561Z,8.30
2023-03-15T19:02:59.939Z,8.30
2023-03-15T19:05:29.271Z,8.30
2023-03-15T19:07:56.465Z,8.30
2023-03-15T19:10:25.631Z,8.20
2023-03-15T19:12:53.535Z,8.20
2023-03-15T19:15:22.182Z,8.10
2023-03-15T19:17:54.270Z,8.10
2023-03-15T19:20:22.804Z,8.00
2023-03-15T19:22:51.214Z,8.00
2023-03-15T19:25:18.720Z,8.00
2023-03-15T19:27:46.084Z,7.90
2023-03-15T19:30:21.198Z,7.90
2023-03-15T19:32:50.162Z,7.90
2023-03-15T19:35:19.881Z,7.90
2023-03-15T19:37:48.038Z,7.80
2023-03-15T19:40:17.047Z,7.80
2023-03-15T19:42:44.659Z,7.80
2023-03-15T19:45:12.601Z,7.80
2023-03-15T19:47:40.198Z,7.80
2023-03-15T19:50:11.045Z,7.80
2023-03-15T19:52:45.615Z,7.80
2023-03-15T19:55:19.588Z,7.80
2023-03-15T19:57:47.621Z,7.80
2023-03-15T20:00:16.629Z,7.80
2023-03-15T20:02:45.095Z,7.80
2023-03-15T20:05:15.393Z,7.80
2023-03-15T20:07:43.370Z,7.80
2023-03-15T20:10:12.354Z,7.80
2023-03-15T20:12:42.280Z,7.70
2023-03-15T20:15:12.237Z,7.70
2023-03-15T20:17:40.894Z,7.70
2023-03-15T20:20:10.953Z,7.70
2023-03-15T20:22:41.409Z,7.70
2023-03-15T20:25:11.149Z,7.70
2023-03-15T20:27:38.375Z,7.60
2023-03-15T20:30:08.376Z,7.60
2023-03-15T20:32:35.551Z,7.60
2023-03-15T20:35:07.257Z,7.50
2023-03-15T20:37:35.353Z,7.50
2023-03-15T20:40:08.835Z,7.50
2023-03-15T20:42:36.037Z,7.50
2023-03-15T20:45:04.324Z,7.50
2023-03-15T20:47:31.344Z,7.40
2023-03-15T20:49:58.230Z,7.40
2023-03-15T20:52:25.505Z,7.40
2023-03-15T20:54:52.422Z,7.40
2023-03-15T20:57:19.401Z,7.30
2023-03-15T20:59:46.755Z,7.30
2023-03-15T21:02:13.615Z,7.30
2023-03-15T21:04:40.852Z,7.30
2023-03-15T21:07:07.962Z,7.20
2023-03-15T21:09:35.461Z,7.30
2023-03-15T21:12:02.713Z,7.20
2023-03-15T21:14:29.641Z,7.20
2023-03-15T21:16:56.632Z,7.20
2023-03-15T21:19:24.728Z,7.10
2023-03-15T21:21:51.596Z,7.10
2023-03-15T21:24:18.563Z,7.10
2023-03-15T21:26:48.588Z,7.00
2023-03-15T21:29:15.618Z,7.00
2023-03-15T21:31:42.583Z,6.90
2023-03-15T21:34:09.430Z,6.90
2023-03-15T21:36:36.264Z,6.90
2023-03-15T21:39:04.120Z,6.90
2023-03-15T21:41:31.947Z,6.80
2023-03-15T21:43:58.786Z,6.80
2023-03-15T21:46:26.349Z,6.80
2023-03-15T21:48:53.268Z,6.80
2023-03-15T21:51:22.225Z,6.70
2023-03-15T21:53:50.267Z,6.80
2023-03-15T21:56:17.191Z,6.80
2023-03-15T21:58:44.106Z,6.70
2023-03-15T22:01:13.781Z,6.70
2023-03-15T22:03:42.602Z,6.70
2023-03-15T22:06:09.934Z,6.80
2023-03-15T22:08:36.868Z,6.70
2023-03-15T22:11:04.596Z,6.80
2023-03-15T22:13:31.691Z,6.80
2023-03-15T22:15:59.105Z,6.80
2023-03-15T22:18:28.761Z,6.80
2023-03-15T22:20:56.858Z,6.80
2023-03-15T22:23:24.126Z,6.80
2023-03-15T22:25:53.434Z,6.80
2023-03-15T22:28:21.732Z,6.70
2023-03-15T22:30:50.244Z,6.70
2023-03-15T22:33:19.737Z,6.70
2023-03-15T22:35:46.631Z,6.70
2023-03-15T22:38:13.496Z,6.70
2023-03-15T22:40:41.245Z,6.70
2023-03-15T22:43:09.157Z,6.70
2023-03-15T22:45:37.195Z,6.80
2023-03-15T22:48:04.347Z,6.70
2023-03-15T22:50:31.620Z,6.60
2023-03-15T22:52:58.472Z,6.70
2023-03-15T22:55:25.436Z,6.70
2023-03-15T22:57:54.047Z,6.60
2023-03-15T23:00:23.489Z,6.60
2023-03-15T23:02:51.498Z,6.60
2023-03-15T23:05:21.290Z,6.60
2023-03-15T23:07:48.187Z,6.70
2023-03-15T23:10:15.802Z,6.60
2023-03-15T23:12:42.778Z,6.60
2023-03-15T23:15:12.293Z,6.60
2023-03-15T23:17:39.203Z,6.60
2023-03-15T23:20:07.403Z,6.60
2023-03-15T23:22:34.678Z,6.60
2023-03-15T23:25:01.668Z,6.60
2023-03-15T23:27:28.840Z,6.60
2023-03-15T23:29:55.722Z,6.60
2023-03-15T23:32:25.147Z,6.70
2023-03-15T23:34:53.541Z,6.50
2023-03-15T23:37:21.228Z,6.60
2023-03-15T23:39:48.157Z,6.60
2023-03-15T23:42:15.019Z,6.60
2023-03-15T23:44:42.176Z,6.50
2023-03-15T23:47:09.265Z,6.50
2023-03-15T23:49:36.162Z,6.50
2023-03-15T23:52:06.626Z,6.50
2023-03-15T23:54:40.262Z,6.50
2023-03-15T23:57:13.548Z,6.60
2023-03-15T23:59:42.198Z,6.50
